Time;durP1;ratioP1;P1;durP2;ratioP2;P2;SDS_P1;SDS_P2;PMS_P1;PMS_P2;Temp;Humidity;BMP_temperature;BMP_pressure;BME280_temperature;BME280_humidity;BME280_pressure;Samples;Min_cycle;Max_cycle;Signal;HPM_P1;HPM_P2
2021/06/12 00:01:21;;;;;;;5.07;3.78;;;;;;;14.62;92.17;96872.63;4966088;28;20039;-75
2021/06/12 00:03:48;;;;;;;5.63;4.10;;;;;;;14.53;92.15;96866.66;4967729;28;20035;-75
2021/06/12 00:06:13;;;;;;;5.05;3.80;;;;;;;14.53;91.82;96871.44;4966045;28;20037;-70
2021/06/12 00:08:39;;;;;;;6.75;4.25;;;;;;;14.23;91.96;96832.03;4966181;28;20039;-75
2021/06/12 00:11:04;;;;;;;5.30;3.97;;;;;;;14.40;91.96;96840.41;4966275;28;20031;-70
2021/06/12 00:13:31;;;;;;;5.60;4.20;;;;;;;14.69;91.80;96871.81;4966691;28;20057;-72
2021/06/12 00:15:56;;;;;;;4.45;4.05;;;;;;;14.80;90.09;96873.41;4965600;28;20030;-73
2021/06/12 00:18:22;;;;;;;6.07;4.07;;;;;;;14.57;89.85;96852.72;4967361;28;20421;-71
2021/06/12 00:20:48;;;;;;;4.30;3.90;;;;;;;14.40;90.11;96834.06;4967044;28;20100;-71
2021/06/12 00:23:16;;;;;;;7.03;3.95;;;;;;;14.74;91.40;96893.72;4966056;28;20078;-75
2021/06/12 00:25:42;;;;;;;4.43;4.03;;;;;;;14.66;91.01;96880.97;4967021;28;20055;-75
2021/06/12 00:28:07;;;;;;;4.78;3.67;;;;;;;14.43;91.50;96852.75;4965829;28;20140;-74
2021/06/12 00:30:33;;;;;;;5.63;3.72;;;;;;;14.53;92.21;96885.38;4967300;28;20521;-75
2021/06/12 00:32:59;;;;;;;5.68;3.60;;;;;;;14.38;91.14;96858.72;4967463;28;20074;-75
2021/06/12 00:35:25;;;;;;;4.38;3.72;;;;;;;14.41;92.04;96885.78;4966577;28;20034;-73
2021/06/12 00:37:51;;;;;;;4.40;4.00;;;;;;;14.36;92.35;96877.81;4966159;28;20043;-75
2021/06/12 00:40:18;;;;;;;8.45;4.55;;;;;;;13.92;92.60;96833.63;4966572;28;20042;-76
2021/06/12 00:42:45;;;;;;;6.10;4.15;;;;;;;14.25;92.55;96879.81;4967485;28;20503;-76
2021/06/12 00:45:17;;;;;;;5.22;4.32;;;;;;;14.10;93.98;96878.22;4964689;28;20464;-75
2021/06/12 00:47:43;;;;;;;8.02;3.80;;;;;;;14.05;93.35;96859.09;4965360;28;20034;-73
2021/06/12 00:50:09;;;;;;;6.47;4.05;;;;;;;13.84;92.87;96820.09;4965230;28;20023;-75
2021/06/12 00:52:37;;;;;;;4.93;3.80;;;;;;;14.16;93.41;96893.31;4966843;28;20137;-74
2021/06/12 00:55:03;;;;;;;9.80;4.45;;;;;;;14.02;94.87;96873.81;4966706;28;20490;-75
2021/06/12 00:57:29;;;;;;;6.10;4.07;;;;;;;14.15;94.31;96875.00;4966796;28;20169;-70
2021/06/12 00:59:55;;;;;;;10.07;3.80;;;;;;;14.21;94.06;96873.44;4966663;28;20073;-73
2021/06/12 01:02:20;;;;;;;4.25;3.65;;;;;;;13.22;95.07;96728.59;4966358;28;20042;-71
2021/06/12 01:04:46;;;;;;;5.40;3.97;;;;;;;13.89;94.25;96851.13;4965272;28;20031;-73
2021/06/12 01:07:11;;;;;;;5.18;3.70;;;;;;;14.34;94.20;96894.94;4966084;28;20046;-75
2021/06/12 01:09:37;;;;;;;5.00;3.13;;;;;;;14.36;94.29;96869.47;4966661;28;20031;-71
2021/06/12 01:12:20;;;;;;;5.60;3.72;;;;;;;14.40;93.94;96881.44;4964650;28;20042;-72
2021/06/12 01:14:53;;;;;;;5.13;3.67;;;;;;;14.51;93.58;96863.47;4966586;28;20498;-75
2021/06/12 01:17:27;;;;;;;4.50;3.80;;;;;;;14.37;92.73;96813.34;4966060;28;20078;-71
2021/06/12 01:20:18;;;;;;;4.32;3.38;;;;;;;14.76;91.50;96877.38;4966061;28;20034;-74
2021/06/12 01:22:47;;;;;;;5.05;4.05;;;;;;;14.81;91.25;96871.41;4966998;28;20062;-73
2021/06/12 01:25:57;;;;;;;6.10;4.30;;;;;;;14.87;91.17;96881.72;4965754;28;20117;-75
2021/06/12 01:28:22;;;;;;;4.95;4.15;;;;;;;14.89;91.79;96873.00;4966653;28;20060;-75
2021/06/12 01:30:54;;;;;;;4.20;3.80;;;;;;;14.87;90.33;96850.28;4964015;28;20497;-76
2021/06/12 01:33:20;;;;;;;6.70;4.05;;;;;;;15.03;88.80;96872.94;4966005;28;20050;-75
2021/06/12 01:35:50;;;;;;;4.43;4.03;;;;;;;14.98;89.01;96874.13;4964110;28;20038;-75
2021/06/12 01:38:27;;;;;;;5.05;4.25;;;;;;;14.59;89.00;96828.06;4966312;28;20034;-76
2021/06/12 01:40:56;;;;;;;5.18;3.70;;;;;;;14.70;88.51;96834.41;4964199;28;20042;-76
2021/06/12 01:43:23;;;;;;;5.07;3.70;;;;;;;15.08;87.11;96878.88;4966513;28;20498;-76
2021/06/12 01:45:50;;;;;;;4.85;3.70;;;;;;;15.03;86.89;96886.91;4965842;28;20053;-75
2021/06/12 01:48:16;;;;;;;4.40;3.63;;;;;;;14.93;88.76;96882.13;4964298;28;20046;-74
2021/06/12 01:50:42;;;;;;;4.18;3.75;;;;;;;14.98;88.12;96878.94;4965408;28;20039;-75
2021/06/12 01:53:10;;;;;;;6.32;3.60;;;;;;;15.05;88.59;96878.91;4964075;28;20289;-76
2021/06/12 01:55:37;;;;;;;5.97;4.20;;;;;;;15.13;88.30;96874.88;4965627;28;20034;-76
2021/06/12 01:58:07;;;;;;;6.75;4.20;;;;;;;15.18;87.88;96866.91;4965873;28;20037;-72
2021/06/12 02:00:33;;;;;;;4.72;4.22;;;;;;;15.19;87.72;96874.06;4965534;28;20477;-75
2021/06/12 02:03:00;;;;;;;7.78;5.60;;;;;;;14.77;88.00;96829.59;4965537;28;20046;-75
2021/06/12 02:05:26;;;;;;;9.13;4.50;;;;;;;14.82;88.07;96820.81;4964896;28;20039;-74
2021/06/12 02:07:55;;;;;;;9.38;5.20;;;;;;;15.22;88.13;96880.03;4965428;28;20360;-73
2021/06/12 02:10:23;;;;;;;6.15;5.03;;;;;;;15.22;88.13;96874.47;4964920;28;20117;-71
2021/06/12 02:12:53;;;;;;;5.30;4.63;;;;;;;15.09;89.22;96874.88;4963761;28;20035;-71
2021/06/12 02:15:19;;;;;;;6.55;4.88;;;;;;;15.09;89.93;96874.13;4963431;28;20121;-73
2021/06/12 02:17:46;;;;;;;6.95;5.05;;;;;;;15.07;89.97;96880.09;4963730;28;20058;-70
2021/06/12 02:20:14;;;;;;;8.68;4.95;;;;;;;15.13;90.03;96874.88;4963481;28;20470;-76
2021/06/12 02:22:51;;;;;;;5.47;4.07;;;;;;;15.18;89.67;96877.25;4965494;28;20027;-76
2021/06/12 02:25:18;;;;;;;4.68;4.15;;;;;;;15.23;89.12;96885.22;4963240;28;20031;-73
2021/06/12 02:27:48;;;;;;;5.63;4.32;;;;;;;14.64;90.10;96797.75;4965274;28;20113;-75
2021/06/12 02:30:15;;;;;;;10.30;4.30;;;;;;;15.24;89.60;96881.22;4964771;28;20026;-76
2021/06/12 02:32:54;;;;;;;5.95;4.63;;;;;;;15.07;90.99;96876.50;4963509;28;20481;-74
2021/06/12 02:35:20;;;;;;;6.57;4.88;;;;;;;15.18;90.90;96882.84;4964656;28;20186;-74
2021/06/12 02:37:46;;;;;;;9.70;4.65;;;;;;;15.18;90.94;96883.66;4965128;28;20117;-76
2021/06/12 02:40:12;;;;;;;9.85;4.25;;;;;;;15.25;89.60;96882.03;4963182;28;20038;-76
2021/06/12 02:42:37;;;;;;;7.80;4.00;;;;;;;15.28;89.69;96898.75;4964876;28;20033;-75
2021/06/12 02:45:07;;;;;;;6.50;4.28;;;;;;;15.15;89.84;96866.91;4965246;28;20027;-75
2021/06/12 02:47:38;;;;;;;4.93;4.05;;;;;;;15.35;89.69;96886.78;4964602;28;20049;-72
2021/06/12 02:50:05;;;;;;;6.63;4.07;;;;;;;15.28;88.65;96859.69;4963388;28;20033;-76
2021/06/12 02:52:33;;;;;;;4.80;4.13;;;;;;;15.37;89.48;96896.31;4964759;28;20046;-76
2021/06/12 02:55:01;;;;;;;7.65;3.95;;;;;;;15.43;88.95;96889.16;4965317;28;20038;-74
2021/06/12 02:57:27;;;;;;;6.90;3.78;;;;;;;15.29;88.92;96883.59;4964924;28;20510;-74
2021/06/12 02:59:54;;;;;;;7.82;3.90;;;;;;;15.27;88.87;96866.44;4966193;28;20070;-74
2021/06/12 03:02:22;;;;;;;4.40;4.00;;;;;;;15.13;88.77;96841.41;4968369;28;20031;-75
2021/06/12 03:04:48;;;;;;;4.95;4.43;;;;;;;14.62;89.60;96765.91;4968828;28;20043;-72
2021/06/12 03:07:14;;;;;;;5.53;4.07;;;;;;;15.48;88.57;96899.91;4968816;28;20072;-73
2021/06/12 03:09:44;;;;;;;4.55;4.03;;;;;;;15.49;88.67;96904.28;4968697;28;20071;-75
2021/06/12 03:12:11;;;;;;;4.88;4.00;;;;;;;15.14;89.17;96851.38;4968856;28;20089;-75
2021/06/12 03:14:40;;;;;;;6.80;4.15;;;;;;;14.72;89.14;96759.47;4967622;28;20034;-71
2021/06/12 03:17:10;;;;;;;6.18;4.18;;;;;;;15.67;88.86;96893.81;4966764;28;20041;-71
2021/06/12 03:19:37;;;;;;;7.60;4.10;;;;;;;15.75;88.82;96898.16;4956316;28;20031;-70
2021/06/12 03:22:04;;;;;;;8.10;4.53;;;;;;;15.72;89.28;96901.78;4949133;28;20098;-74
2021/06/12 03:24:31;;;;;;;5.22;3.90;;;;;;;15.78;88.33;96905.72;4947568;28;20043;-75
2021/06/12 03:26:59;;;;;;;6.18;4.10;;;;;;;15.89;87.78;96909.25;4949021;28;20063;-75
2021/06/12 03:29:27;;;;;;;4.78;4.25;;;;;;;15.84;87.78;96904.09;4949416;28;20077;-73
2021/06/12 03:31:53;;;;;;;4.28;3.88;;;;;;;15.81;88.26;96904.09;4948968;28;20039;-75
2021/06/12 03:34:20;;;;;;;5.70;4.78;;;;;;;15.73;88.55;96914.53;4948900;28;20038;-72
2021/06/12 03:36:46;;;;;;;8.15;4.90;;;;;;;15.40;89.20;96862.03;4948415;28;20031;-74
2021/06/12 03:39:11;;;;;;;6.15;3.88;;;;;;;15.50;88.20;96855.63;4948759;28;20521;-73
2021/06/12 03:41:37;;;;;;;7.75;4.07;;;;;;;15.86;88.32;96910.06;4948522;28;20106;-75
2021/06/12 03:44:04;;;;;;;4.28;3.85;;;;;;;16.00;87.14;96907.19;4948810;28;20027;-73
2021/06/12 03:46:30;;;;;;;8.50;4.57;;;;;;;15.98;87.55;96898.41;4946958;29;20062;-73
2021/06/12 03:48:55;;;;;;;5.40;4.38;;;;;;;16.09;87.10;96893.56;4948543;28;20058;-75
2021/06/12 03:51:21;;;;;;;7.20;4.57;;;;;;;16.14;86.87;96951.81;4948946;28;20035;-73
2021/06/12 03:53:47;;;;;;;5.90;4.60;;;;;;;16.21;86.61;96895.88;4948539;28;20051;-75
2021/06/12 03:56:25;;;;;;;10.07;4.53;;;;;;;16.41;85.48;96894.13;4946596;29;20039;-75
2021/06/12 03:58:51;;;;;;;9.07;5.05;;;;;;;16.13;85.45;96848.81;4947020;29;20035;-74
2021/06/12 04:01:19;;;;;;;10.32;5.88;;;;;;;16.20;84.67;96863.53;4947972;28;20051;-75
2021/06/12 04:03:45;;;;;;;9.13;5.63;;;;;;;16.54;84.49;96903.63;4948448;28;20081;-73
2021/06/12 04:06:11;;;;;;;5.00;4.60;;;;;;;16.68;83.92;96907.53;4948054;28;20085;-75
2021/06/12 04:08:38;;;;;;;5.80;5.10;;;;;;;16.77;83.27;96900.22;4948685;28;20059;-74
2021/06/12 04:11:04;;;;;;;8.15;5.10;;;;;;;16.84;82.69;96905.75;4946397;28;20039;-74
2021/06/12 04:13:30;;;;;;;6.18;4.55;;;;;;;16.83;83.09;96918.16;4947299;29;20042;-74
2021/06/12 04:15:55;;;;;;;7.70;4.45;;;;;;;16.89;83.58;96908.09;4947881;28;20039;-73
2021/06/12 04:18:21;;;;;;;4.72;4.25;;;;;;;16.80;83.67;96899.41;4948006;28;20489;-74
2021/06/12 04:20:47;;;;;;;5.28;4.55;;;;;;;16.98;83.56;96916.00;4967345;28;20049;-72
2021/06/12 04:23:12;;;;;;;9.20;4.25;;;;;;;17.09;83.33;96922.28;4967378;28;20494;-75
2021/06/12 04:25:38;;;;;;;4.90;4.40;;;;;;;16.93;82.97;96880.88;4965417;28;20051;-76
2021/06/12 04:28:06;;;;;;;5.18;4.68;;;;;;;16.69;82.98;96834.38;4967798;28;20033;-69
2021/06/12 04:30:33;;;;;;;4.97;4.47;;;;;;;17.45;81.69;96935.50;4965218;28;20047;-74
2021/06/12 04:32:59;;;;;;;5.88;4.57;;;;;;;17.37;81.28;96899.59;4965830;28;20035;-74
2021/06/12 04:35:24;;;;;;;6.47;4.75;;;;;;;17.69;81.59;96944.81;4966538;28;20038;-73
2021/06/12 04:37:50;;;;;;;5.18;3.60;;;;;;;17.42;80.83;96885.13;4967129;28;20557;-70
2021/06/12 04:40:17;;;;;;;5.95;4.85;;;;;;;17.43;80.52;96876.31;4966251;28;20482;-75
2021/06/12 04:42:42;;;;;;;6.40;4.03;;;;;;;17.62;80.79;96894.50;4967171;28;20065;-75
2021/06/12 04:45:09;;;;;;;5.88;4.00;;;;;;;17.76;79.94;96927.94;4965056;28;20539;-72
2021/06/12 04:47:35;;;;;;;4.97;4.22;;;;;;;17.91;80.17;96937.72;4965352;28;20058;-73
2021/06/12 04:50:01;;;;;;;5.22;4.72;;;;;;;17.86;79.83;96927.78;4965532;28;20466;-70
2021/06/12 04:52:26;;;;;;;6.00;4.28;;;;;;;17.94;80.04;96939.72;4966061;28;20062;-73
2021/06/12 04:54:53;;;;;;;7.72;5.07;;;;;;;18.16;79.53;96946.63;4966525;28;20121;-70
2021/06/12 04:57:19;;;;;;;7.20;5.03;;;;;;;18.36;79.03;96935.50;4964664;28;20038;-71
2021/06/12 04:59:44;;;;;;;9.32;4.95;;;;;;;18.52;78.49;96936.47;4966544;28;20035;-74
2021/06/12 05:02:10;;;;;;;10.35;4.97;;;;;;;18.28;76.84;96920.78;4965924;28;20166;-74
2021/06/12 05:04:35;;;;;;;6.22;4.05;;;;;;;18.60;76.48;96898.69;4966417;28;20043;-71
2021/06/12 05:07:01;;;;;;;4.82;4.35;;;;;;;19.10;74.93;96933.06;4966522;28;20494;-74
2021/06/12 05:09:26;;;;;;;6.30;4.55;;;;;;;19.09;74.72;96925.88;4966801;28;20031;-73
2021/06/12 05:11:52;;;;;;;4.63;4.22;;;;;;;19.33;74.28;96941.50;4965803;28;20035;-72
2021/06/12 05:14:18;;;;;;;8.85;5.80;;;;;;;19.05;73.58;96941.97;4966304;28;20041;-69
2021/06/12 05:16:44;;;;;;;4.85;4.35;;;;;;;18.75;76.46;96950.53;4964396;28;20038;-72
2021/06/12 05:19:09;;;;;;;7.50;4.90;;;;;;;19.26;74.81;96941.59;4964538;28;20076;-73
2021/06/12 05:24:37;;;;;;;9.20;4.55;;;;;;;19.70;74.13;96948.00;4966499;28;20520;-73
2021/06/12 05:27:07;;;;;;;7.13;5.05;;;;;;;19.56;73.64;96904.13;4966186;28;20118;-70
2021/06/12 05:29:33;;;;;;;7.13;4.85;;;;;;;18.79;73.76;96782.88;4966388;28;20373;-73
2021/06/12 05:31:59;;;;;;;7.13;4.88;;;;;;;19.97;72.68;96948.63;4965490;28;20039;-73
2021/06/12 05:34:24;;;;;;;5.70;5.03;;;;;;;20.05;71.94;96955.69;4966036;28;20050;-72
2021/06/12 05:36:50;;;;;;;9.40;5.18;;;;;;;19.58;72.09;96879.19;4965911;28;20031;-73
2021/06/12 05:39:15;;;;;;;11.25;5.15;;;;;;;19.85;71.11;96884.66;4965723;28;20045;-73
2021/06/12 05:41:41;;;;;;;7.75;4.50;;;;;;;20.21;70.48;96914.38;4966141;28;20041;-73
2021/06/12 05:44:07;;;;;;;10.82;5.07;;;;;;;20.14;70.04;96888.44;4964606;28;20035;-75
2021/06/12 05:46:32;;;;;;;15.15;5.30;;;;;;;20.87;68.48;96959.03;4963764;28;20038;-74
2021/06/12 05:49:00;;;;;;;10.05;5.78;;;;;;;20.95;67.12;96935.91;4965679;28;20031;-76
2021/06/12 05:51:26;;;;;;;5.28;4.53;;;;;;;21.17;66.06;96955.88;4965369;28;20631;-73
2021/06/12 05:53:51;;;;;;;6.63;4.57;;;;;;;20.98;66.56;96956.00;4965286;28;20051;-70
2021/06/12 05:56:17;;;;;;;5.60;4.47;;;;;;;20.84;65.96;96931.75;4965056;28;20038;-74
2021/06/12 05:58:42;;;;;;;6.35;5.07;;;;;;;21.12;66.08;96953.59;4966291;28;20065;-72
2021/06/12 06:03:52;;;;;;;6.07;5.00;;;;;;;21.19;65.83;96958.25;4962799;28;20061;-73
2021/06/12 06:06:17;;;;;;;6.05;5.07;;;;;;;21.33;65.05;96953.06;4964243;28;20486;-63
2021/06/12 06:08:43;;;;;;;6.70;4.82;;;;;;;19.61;64.84;96706.91;4964705;28;20047;-62
2021/06/12 06:11:08;;;;;;;5.65;4.53;;;;;;;21.09;65.89;96948.84;4964462;28;20634;-63
2021/06/12 06:13:41;;;;;;;5.40;4.90;;;;;;;21.33;65.58;96952.25;4964840;28;20046;-59
2021/06/12 06:16:07;;;;;;;9.45;5.25;;;;;;;21.21;66.18;96934.06;4964436;28;20497;-59
2021/06/12 06:18:33;;;;;;;7.95;5.45;;;;;;;21.39;66.49;96951.28;4964368;28;20043;-64
2021/06/12 06:20:59;;;;;;;4.50;4.10;;;;;;;21.24;65.07;96918.28;4964188;28;20050;-69
2021/06/12 06:23:24;;;;;;;6.50;4.28;;;;;;;21.14;65.90;96945.50;4964184;28;20031;-70
2021/06/12 06:25:50;;;;;;;6.63;5.28;;;;;;;21.70;65.22;96952.44;4962497;28;20055;-64
2021/06/12 06:28:15;;;;;;;10.35;4.93;;;;;;;21.23;65.06;96861.13;4964659;28;20031;-62
2021/06/12 06:30:41;;;;;;;12.10;4.60;;;;;;;21.92;64.54;96956.28;4963555;28;20027;-66
2021/06/12 06:33:06;;;;;;;6.15;4.60;;;;;;;22.17;64.12;96950.69;4964092;28;20141;-62
2021/06/12 06:35:32;;;;;;;7.95;5.05;;;;;;;22.18;64.19;96943.78;4964240;28;20070;-71
2021/06/12 06:37:57;;;;;;;6.32;4.93;;;;;;;22.31;64.14;96944.59;4963920;28;20421;-66
2021/06/12 06:40:23;;;;;;;7.90;5.18;;;;;;;21.05;66.40;96879.75;4978211;28;20030;-72
2021/06/12 06:42:49;;;;;;;7.18;5.65;;;;;;;21.83;66.98;96963.81;4962701;28;20042;-69
2021/06/12 06:45:14;;;;;;;6.15;5.25;;;;;;;22.04;65.07;96946.25;4964165;28;20553;-74
2021/06/12 06:47:40;;;;;;;10.38;4.50;;;;;;;22.03;64.08;96945.47;4965134;28;20543;-58
2021/06/12 06:50:06;;;;;;;5.85;5.10;;;;;;;21.81;63.29;96904.22;4964207;28;20030;-59
2021/06/12 06:52:32;;;;;;;6.85;5.03;;;;;;;22.15;63.99;96935.44;4963620;28;20069;-60
2021/06/12 06:54:57;;;;;;;6.95;5.28;;;;;;;22.08;64.57;96953.34;4964406;28;20038;-67
2021/06/12 06:57:23;;;;;;;7.88;5.45;;;;;;;22.40;63.37;96946.75;4963424;28;20053;-58
2021/06/12 06:59:48;;;;;;;8.70;6.25;;;;;;;21.78;62.70;96872.03;4963788;28;20035;-63
2021/06/12 07:02:14;;;;;;;5.72;4.90;;;;;;;22.35;62.08;96917.03;4962247;28;20702;-72
2021/06/12 07:04:40;;;;;;;6.13;5.03;;;;;;;22.61;61.83;96939.66;4962144;28;20137;-68
2021/06/12 07:07:06;;;;;;;5.93;5.40;;;;;;;22.95;61.30;96939.78;4963795;28;20050;-63
2021/06/12 07:09:31;;;;;;;5.60;5.07;;;;;;;22.64;60.52;96868.16;4962170;28;20593;-67
2021/06/12 07:11:59;;;;;;;6.15;5.40;;;;;;;22.62;59.43;96846.03;4962710;28;20413;-63
2021/06/12 07:14:29;;;;;;;7.30;5.07;;;;;;;23.27;59.13;96914.06;4964019;28;20038;-62
2021/06/12 07:16:54;;;;;;;7.68;5.38;;;;;;;22.92;59.09;96872.88;4964125;28;20046;-70
2021/06/12 07:19:20;;;;;;;6.88;5.32;;;;;;;23.41;58.21;96930.53;4964311;28;20170;-67
2021/06/12 07:21:47;;;;;;;6.32;5.47;;;;;;;23.07;57.88;96854.97;4963722;28;20039;-60
2021/06/12 07:24:13;;;;;;;5.85;4.82;;;;;;;23.46;58.06;96918.63;4962197;28;20050;-68
2021/06/12 07:26:39;;;;;;;9.50;6.05;;;;;;;23.10;59.31;96938.03;4964556;28;20038;-61
2021/06/12 07:29:05;;;;;;;10.10;7.90;;;;;;;22.22;61.42;96842.09;4964556;28;20069;-71
2021/06/12 07:31:30;;;;;;;7.35;6.30;;;;;;;22.68;59.68;96871.69;4963996;28;20382;-71
2021/06/12 07:33:56;;;;;;;8.73;6.32;;;;;;;22.36;62.65;96929.94;4964413;28;20038;-72
2021/06/12 07:36:22;;;;;;;26.17;14.75;;;;;;;23.18;60.12;96928.88;4978445;28;20134;-61
2021/06/12 07:38:48;;;;;;;9.77;5.30;;;;;;;23.14;57.38;96842.63;4963756;28;20043;-62
2021/06/12 07:41:13;;;;;;;5.20;4.78;;;;;;;23.43;54.38;96792.31;4961697;28;20092;-69
2021/06/12 07:43:39;;;;;;;4.47;4.05;;;;;;;24.55;52.38;96940.00;4962360;28;20030;-71
2021/06/12 07:46:04;;;;;;;4.95;4.55;;;;;;;24.77;50.66;96923.75;4964047;28;20440;-61
2021/06/12 07:48:30;;;;;;;7.13;5.22;;;;;;;24.57;52.33;96921.28;4966202;28;20034;-61
2021/06/12 07:50:55;;;;;;;4.65;4.30;;;;;;;24.87;51.37;96906.31;4964795;28;20105;-70
2021/06/12 07:53:21;;;;;;;4.63;4.20;;;;;;;25.25;50.16;96909.56;4964402;28;20063;-62
2021/06/12 07:55:46;;;;;;;4.82;4.43;;;;;;;25.56;48.26;96922.84;4965101;28;20046;-61
2021/06/12 07:58:12;;;;;;;5.63;5.13;;;;;;;24.14;49.24;96699.81;4963637;28;20097;-64
2021/06/12 08:00:37;;;;;;;9.55;5.40;;;;;;;25.42;48.73;96912.13;4966415;28;20046;-68
2021/06/12 08:03:03;;;;;;;42.40;19.27;;;;;;;24.68;49.38;96927.34;4965728;28;20037;-69
2021/06/12 08:05:47;;;;;;;11.95;6.35;;;;;;;25.26;46.89;96916.78;4966518;28;20564;-62
2021/06/12 08:08:13;;;;;;;11.13;4.63;;;;;;;23.57;47.52;96622.88;4966986;28;20038;-70
2021/06/12 08:10:38;;;;;;;4.50;4.07;;;;;;;25.97;46.96;96916.53;4966390;28;20031;-74
2021/06/12 08:13:04;;;;;;;4.30;4.00;;;;;;;26.23;46.07;96914.91;4966542;28;20034;-71
2021/06/12 08:15:30;;;;;;;4.28;3.85;;;;;;;26.23;46.22;96927.09;4965539;28;20478;-62
2021/06/12 08:17:55;;;;;;;7.63;5.70;;;;;;;26.24;47.34;96916.53;4967235;28;20070;-62
2021/06/12 08:20:23;;;;;;;4.45;4.05;;;;;;;25.97;47.16;96839.88;4966152;28;20027;-74
2021/06/12 08:22:48;;;;;;;6.30;5.75;;;;;;;26.92;45.67;96918.47;4966848;28;20078;-67
2021/06/12 08:25:13;;;;;;;5.00;4.30;;;;;;;27.05;45.05;96919.06;4966070;28;20057;-61
2021/06/12 08:27:39;;;;;;;5.85;5.18;;;;;;;26.20;46.98;96915.88;4965956;28;20046;-61
2021/06/12 08:30:06;;;;;;;5.10;4.45;;;;;;;24.66;50.12;96895.84;4965283;28;20061;-60
2021/06/12 08:32:32;;;;;;;4.90;4.28;;;;;;;25.38;48.97;96917.94;4965135;28;20050;-71
2021/06/12 08:34:57;;;;;;;6.57;4.75;;;;;;;25.31;47.54;96816.13;4980043;28;20193;-73
2021/06/12 08:37:23;;;;;;;4.90;4.50;;;;;;;26.10;47.09;96915.09;4965309;28;20042;-73
2021/06/12 08:40:07;;;;;;;4.50;4.13;;;;;;;26.81;45.09;96915.38;4963432;28;20047;-68
2021/06/12 08:42:33;;;;;;;5.40;4.38;;;;;;;26.80;45.06;96878.91;4966102;28;20513;-61
2021/06/12 08:45:00;;;;;;;6.53;4.80;;;;;;;26.37;46.40;96829.03;4966441;28;20040;-62
2021/06/12 08:47:25;;;;;;;4.63;4.22;;;;;;;27.01;44.39;96878.63;4965764;28;20035;-61
2021/06/12 08:49:52;;;;;;;5.40;4.13;;;;;;;25.83;46.76;96908.66;4980641;28;20816;-62
2021/06/12 08:52:47;;;;;;;4.97;4.50;;;;;;;26.15;46.65;96913.69;4966667;28;20094;-64
2021/06/12 08:55:12;;;;;;;5.55;4.97;;;;;;;26.65;46.49;96902.34;4963384;28;20031;-62
2021/06/12 08:57:38;;;;;;;5.43;5.00;;;;;;;27.39;44.70;96903.53;4980226;28;20031;-69
2021/06/12 09:00:05;;;;;;;4.75;4.35;;;;;;;27.47;43.77;96870.59;4966172;28;20046;-63
2021/06/12 09:03:07;;;;;;;5.60;4.30;;;;;;;27.69;43.93;96900.31;4966584;28;20046;-76
2021/06/12 09:05:59;;;;;;;5.22;4.72;;;;;;;27.14;43.70;96845.03;4963971;28;20038;-69
2021/06/12 09:11:52;;;;;;;4.90;4.60;;;;;;;28.65;42.18;96895.88;4966207;28;20050;-69
2021/06/12 09:14:17;;;;;;;4.85;4.38;;;;;;;29.02;40.90;96880.63;4964786;28;20035;-71
2021/06/12 09:16:43;;;;;;;6.22;5.10;;;;;;;28.65;41.21;96890.19;4965088;28;20385;-69
2021/06/12 09:19:10;;;;;;;4.78;4.38;;;;;;;28.20;41.75;96893.53;4964952;28;20042;-70
2021/06/12 09:21:37;;;;;;;7.80;5.97;;;;;;;26.81;40.88;96807.34;4965340;28;20035;-71
2021/06/12 09:24:29;;;;;;;5.03;4.38;;;;;;;25.72;45.04;96897.00;4966088;28;20050;-70
2021/06/12 09:26:59;;;;;;;5.78;5.10;;;;;;;26.05;44.27;96898.72;4966153;28;20046;-70
2021/06/12 09:29:35;;;;;;;4.25;3.80;;;;;;;26.58;43.39;96885.63;4966098;28;20447;-71
2021/06/12 09:32:00;;;;;;;4.50;4.10;;;;;;;27.18;42.02;96887.53;4964161;28;20047;-70
2021/06/12 09:34:26;;;;;;;6.18;5.43;;;;;;;27.27;41.79;96885.44;4965796;28;20867;-70
2021/06/12 09:36:52;;;;;;;13.65;10.13;;;;;;;27.37;41.84;96889.81;4963810;28;20050;-70
2021/06/12 09:39:23;;;;;;;7.68;5.72;;;;;;;27.20;42.76;96890.69;4965808;28;20039;-72
2021/06/12 09:41:54;;;;;;;6.53;5.18;;;;;;;26.76;43.26;96896.16;4965778;28;20062;-69
2021/06/12 09:44:54;;;;;;;5.57;5.10;;;;;;;27.21;41.74;96883.72;4966721;28;20105;-69
2021/06/12 09:47:23;;;;;;;4.22;3.83;;;;;;;27.63;40.68;96879.47;4964001;28;20055;-69
2021/06/12 09:49:50;;;;;;;6.00;3.75;;;;;;;27.95;39.51;96881.41;4965877;28;20031;-68
2021/06/12 09:52:18;;;;;;;18.08;11.68;;;;;;;27.41;40.21;96859.09;4964583;28;20059;-71
2021/06/12 09:54:50;;;;;;;11.40;8.00;;;;;;;27.20;41.95;96882.16;4965177;28;20047;-71
2021/06/12 09:57:19;;;;;;;4.93;4.57;;;;;;;27.22;41.95;96871.84;4965111;28;20034;-70
2021/06/12 09:59:47;;;;;;;6.20;4.68;;;;;;;26.69;41.84;96812.03;4965326;28;20041;-72
2021/06/12 10:02:33;;;;;;;8.25;6.80;;;;;;;27.31;41.58;96856.81;4965201;28;20045;-70
2021/06/12 10:04:59;;;;;;;5.13;4.63;;;;;;;26.96;41.25;96830.97;4964445;28;20043;-74
2021/06/12 10:07:25;;;;;;;5.50;5.00;;;;;;;26.21;42.78;96764.06;4965303;28;20039;-71
2021/06/12 10:09:52;;;;;;;4.63;4.32;;;;;;;25.74;45.10;96877.44;4964093;28;20441;-75
2021/06/12 10:12:20;;;;;;;6.10;3.85;;;;;;;23.43;51.84;96879.97;4965320;28;20128;-74
2021/06/12 10:14:46;;;;;;;5.22;4.50;;;;;;;22.75;53.96;96855.28;4965396;28;21113;-73
2021/06/12 10:17:13;;;;;;;6.07;5.40;;;;;;;22.48;56.46;96875.50;4965006;28;20035;-72
2021/06/12 10:19:42;;;;;;;9.18;5.28;;;;;;;22.54;56.26;96872.16;4963579;28;20039;-73
2021/06/12 10:22:10;;;;;;;5.07;4.20;;;;;;;22.32;56.84;96886.09;4965345;28;20035;-71
2021/06/12 10:24:35;;;;;;;9.55;6.63;;;;;;;22.37;57.52;96880.69;4964932;28;20057;-71
2021/06/12 10:27:03;;;;;;;4.50;3.92;;;;;;;22.34;57.23;96875.97;4963209;28;20486;-71
2021/06/12 10:29:28;;;;;;;5.50;4.20;;;;;;;22.28;56.87;96866.47;4965013;28;20035;-72
2021/06/12 10:31:56;;;;;;;6.13;4.00;;;;;;;22.44;56.59;96869.19;4964695;28;20042;-71
2021/06/12 10:34:27;;;;;;;5.07;4.50;;;;;;;22.22;57.10;96828.75;4963262;28;20037;-69
2021/06/12 10:36:58;;;;;;;4.85;4.38;;;;;;;22.14;58.83;96878.22;4964907;28;20493;-71
2021/06/12 10:39:28;;;;;;;5.93;5.15;;;;;;;22.21;57.76;96827.19;4967835;28;20425;-73
2021/06/12 10:42:21;;;;;;;8.45;5.22;;;;;;;22.12;58.32;96855.28;4964691;28;20074;-73
2021/06/12 10:44:51;;;;;;;4.18;3.72;;;;;;;21.91;57.17;96855.94;4963220;28;20034;-70
2021/06/12 10:47:40;;;;;;;4.45;4.00;;;;;;;22.21;57.34;96877.97;4962980;28;20098;-71
2021/06/12 10:50:24;;;;;;;5.55;4.22;;;;;;;22.87;53.89;96873.44;4964397;28;20039;-72
2021/06/12 10:52:51;;;;;;;4.18;3.45;;;;;;;23.09;52.32;96871.47;4963097;28;20263;-69
2021/06/12 10:55:54;;;;;;;6.60;4.20;;;;;;;23.29;52.67;96872.78;4964007;28;20043;-70
2021/06/12 10:58:29;;;;;;;6.95;3.92;;;;;;;23.35;53.32;96876.59;4964543;28;20580;-70
2021/06/12 11:01:12;;;;;;;4.63;4.07;;;;;;;23.41;53.18;96868.34;4964702;28;20038;-69
2021/06/12 11:03:58;;;;;;;4.55;4.15;;;;;;;22.93;53.47;96832.88;4963055;28;20037;-70
2021/06/12 11:09:18;;;;;;;4.72;4.32;;;;;;;23.24;53.74;96866.88;4964473;28;20037;-69
2021/06/12 11:11:52;;;;;;;6.50;3.70;;;;;;;22.91;54.04;96803.47;4962331;28;20035;-70
2021/06/12 11:14:20;;;;;;;6.03;4.07;;;;;;;23.40;54.59;96858.25;4964421;28;20146;-67
2021/06/12 11:17:04;;;;;;;3.47;3.17;;;;;;;23.36;54.32;96861.22;4962329;28;20035;-69
2021/06/12 11:19:30;;;;;;;;;;;;;;;23.44;54.47;96861.75;4963035;28;20042;-69
2021/06/12 11:22:26;;;;;;;4.80;3.13;;;;;;;23.49;54.34;96861.19;4968668;28;19996;-69
2021/06/12 11:25:11;;;;;;;5.90;3.80;;;;;;;23.60;53.58;96864.41;4966384;28;20162;-68
2021/06/12 11:27:40;;;;;;;6.93;4.70;;;;;;;23.59;53.32;96852.28;4968798;28;20046;-69
2021/06/12 11:30:18;;;;;;;4.32;3.80;;;;;;;23.49;53.03;96852.69;4966656;28;20118;-70
2021/06/12 11:33:00;;;;;;;7.38;4.32;;;;;;;23.52;53.67;96857.44;4968032;28;20039;-69
2021/06/12 11:35:39;;;;;;;6.18;3.45;;;;;;;23.25;55.91;96860.00;4967532;28;20038;-68
2021/06/12 11:38:10;;;;;;;3.92;3.40;;;;;;;23.03;57.12;96859.16;4968035;28;20058;-69
2021/06/12 11:40:37;;;;;;;4.25;3.53;;;;;;;22.62;58.97;96795.19;4967741;28;20094;-67
2021/06/12 11:43:03;;;;;;;6.93;4.10;;;;;;;22.89;63.23;96865.31;4966406;28;20034;-69
2021/06/12 11:45:34;;;;;;;6.35;3.85;;;;;;;22.55;65.93;96828.53;4966567;28;20053;-69
2021/06/12 11:48:20;;;;;;;4.10;3.80;;;;;;;22.44;67.54;96860.72;4968232;28;20113;-70
2021/06/12 11:50:51;;;;;;;7.32;4.07;;;;;;;22.42;65.53;96842.63;4966070;28;20144;-70
2021/06/12 11:53:33;;;;;;;5.60;4.78;;;;;;;22.59;64.19;96849.00;4965905;28;20043;-70